createdAt,value
2019-02-11T00:10:31.150Z,5172.9
2019-02-11T00:20:30.362Z,5172.9
2019-02-11T00:30:29.572Z,5172.9
2019-02-11T00:40:28.780Z,5172.9
2019-02-11T00:50:27.991Z,5172.9
2019-02-11T01:00:27.196Z,5172.9
2019-02-11T01:10:26.444Z,5172.9
2019-02-11T01:20:25.734Z,5172.9
2019-02-11T01:30:25.030Z,5172.9
2019-02-11T01:40:24.326Z,5172.9
2019-02-11T01:52:34.339Z,5172.9
2019-02-11T02:02:33.549Z,5172.9
2019-02-11T02:12:32.755Z,5172.9
2019-02-11T02:22:31.966Z,5172.9
2019-02-11T02:34:43.183Z,5172.9
2019-02-11T02:44:42.395Z,5172.9
2019-02-11T02:54:41.592Z,5172.9
2019-02-11T03:04:40.806Z,5172.9
2019-02-11T03:14:40.009Z,5172.9
2019-02-11T03:24:50.003Z,5172.9
2019-02-11T03:34:49.212Z,5172.9
2019-02-11T03:44:48.416Z,5172.9
2019-02-11T04:00:03.538Z,5172.9
2019-02-11T04:10:02.747Z,5173
2019-02-11T04:20:01.947Z,5173.2
2019-02-11T04:30:01.158Z,5173.5
2019-02-11T04:40:00.363Z,5173.7
2019-02-11T04:49:59.577Z,5173.9
2019-02-11T04:59:58.841Z,5174.2
2019-02-11T05:09:58.137Z,5174.4
2019-02-11T05:19:57.439Z,5174.7
2019-02-11T05:29:56.726Z,5174.9
2019-02-11T05:40:16.491Z,5174.2
2019-02-11T05:50:15.706Z,5174.4
2019-02-11T06:00:14.910Z,5174.7
2019-02-11T06:10:14.127Z,5174.7
2019-02-11T06:20:13.336Z,5174.7
2019-02-11T06:30:12.546Z,5174.7
2019-02-11T06:42:51.329Z,5174.7
2019-02-11T06:52:50.548Z,5174.7
2019-02-11T07:02:49.749Z,5174.7
2019-02-11T07:12:48.961Z,5174.7
2019-02-11T07:22:48.167Z,5174.9
2019-02-11T07:32:47.376Z,5175
2019-02-11T07:42:46.637Z,5175
2019-02-11T07:53:03.919Z,5175
2019-02-11T08:03:03.131Z,5175
2019-02-11T08:13:02.333Z,5175
2019-02-11T08:23:01.550Z,5175
2019-02-11T08:33:00.748Z,5175
2019-02-11T08:42:59.957Z,5175
2019-02-11T08:52:59.202Z,5175
2019-02-11T09:02:58.496Z,5175
2019-02-11T09:12:34.967Z,5175
2019-02-11T09:22:34.179Z,5175
2019-02-11T09:37:30.514Z,5175
2019-02-11T09:47:29.674Z,5175
2019-02-11T09:57:28.879Z,5175
2019-02-11T10:07:28.089Z,5175
2019-02-11T10:25:33.977Z,5175
2019-02-11T10:35:33.180Z,5175.3
2019-02-11T10:45:36.533Z,5175.5
2019-02-11T10:55:31.644Z,5175.5
2019-02-11T11:05:30.806Z,5175.5
2019-02-11T11:15:30.014Z,5175.5
2019-02-11T11:25:29.283Z,5175.7
2019-02-11T11:35:28.585Z,5175.8
2019-02-11T11:45:27.992Z,5175.8
2019-02-11T11:55:27.175Z,5175.8
2019-02-11T12:05:26.474Z,5175.8
2019-02-11T12:15:25.750Z,5175.8
2019-02-11T12:27:38.981Z,5175.8
2019-02-11T12:37:38.208Z,5175.8
2019-02-11T12:47:37.393Z,5175.8
2019-02-11T12:57:36.638Z,5175.8
2019-02-11T13:07:35.806Z,5175.8
2019-02-11T13:17:35.189Z,5175.8
2019-02-11T13:27:34.269Z,5175.8
2019-02-11T13:37:33.557Z,5175.8
2019-02-11T13:47:50.700Z,5175.8
2019-02-11T13:57:32.139Z,5175.8
2019-02-11T14:07:31.415Z,5175.8
2019-02-11T14:17:30.825Z,5175.8
2019-02-11T14:27:29.912Z,5175.8
2019-02-11T14:37:29.111Z,5175.8
2019-02-11T14:47:28.318Z,5175.8
2019-02-11T15:09:41.731Z,5175.8
2019-02-11T15:19:40.936Z,5175.8
2019-02-11T15:29:40.191Z,5175.8
2019-02-11T15:39:39.346Z,5175.8
2019-02-11T15:49:38.550Z,5175.8
2019-02-11T15:59:37.755Z,5175.8
2019-02-11T16:09:37.001Z,5176
2019-02-11T16:19:36.291Z,5176.2
2019-02-11T16:29:35.581Z,5176.2
2019-02-11T16:39:34.875Z,5176.2
2019-02-11T16:51:38.250Z,5176
2019-02-11T17:01:37.462Z,5176.3
2019-02-11T17:11:36.673Z,5176.5
2019-02-11T17:26:34.042Z,5175.9
2019-02-11T17:36:33.253Z,5175.9
2019-02-11T17:46:32.463Z,5175.9
2019-02-11T17:56:31.672Z,5175.9
2019-02-11T18:06:30.887Z,5175.9
2019-02-11T18:16:30.114Z,5175.9
2019-02-11T18:26:29.359Z,5175.9
2019-02-11T18:36:28.656Z,5175.9
2019-02-11T18:46:27.954Z,5175.9
2019-02-11T18:56:27.279Z,5176.1
2019-02-11T19:06:26.553Z,5176.2
2019-02-11T19:16:25.850Z,5176.3
2019-02-11T19:26:25.064Z,5176.6
2019-02-11T19:36:25.308Z,5176.8
2019-02-11T19:46:24.520Z,5177.1
2019-02-11T19:56:23.752Z,5177.3
2019-02-11T20:06:22.942Z,5177.3
2019-02-11T20:16:22.156Z,5177.3
2019-02-11T20:26:21.362Z,5177.3
2019-02-11T20:36:20.572Z,5177.3
2019-02-11T20:46:19.800Z,5177.3
2019-02-11T20:56:18.990Z,5177.3
2019-02-11T21:06:18.198Z,5177.3
2019-02-11T21:16:17.410Z,5177.3
2019-02-11T21:26:16.615Z,5177.3
2019-02-11T21:36:15.828Z,5177.3
2019-02-11T21:46:15.032Z,5177.3
2019-02-11T21:56:14.251Z,5177.3
2019-02-11T22:06:13.448Z,5177.3
2019-02-11T22:16:12.655Z,5177.3
2019-02-11T22:26:11.912Z,5177.3
2019-02-11T22:36:11.080Z,5177.3
2019-02-11T22:46:10.277Z,5177.3
2019-02-11T22:56:09.485Z,5177.3
2019-02-11T23:06:08.693Z,5177.3
2019-02-11T23:16:07.898Z,5177.3
2019-02-11T23:25:54.026Z,5177.3
2019-02-11T23:35:53.185Z,5177.3
2019-02-11T23:45:52.390Z,5177.3
2019-02-11T23:55:51.598Z,5177.3
